Flight Track Log - Related Links

Times and Time Zones

All times are in EST time to prevent confusion due to time zone crossing. See the VET90 flight status page for this flight to view local times or setup timezone preferences in your user account.

Time Position Orientation Groundspeed Altitude Reporting Facility
EST Latitude Longitude Course Direction KTS MPH feet Rate Location/Type
Sun 06:59:42 AM 34.7611 -82.3244 131° Southeast 153 176 3,600  Level Atlanta Center
Sun 07:00:42 AM 34.7169 -82.2978 154° Southeast 173 199 4,500 1,050 Climbing Atlanta Center
Sun 07:01:42 AM 34.6769 -82.2758 156° South 187 215 5,700 1,200 Climbing Atlanta Center
Sun 07:02:42 AM 34.6286 -82.2464 153° Southeast 187 215 6,900 1,050 Climbing Atlanta Center
Sun 07:03:42 AM 34.5803 -82.2222 158° South 187 215 7,800 1,150 Climbing Atlanta Center
Sun 07:04:00 AM 34.7356 -82.0040 131° Southeast  Level Estimated
Sun 07:04:42 AM 34.5339 -82.1981 157° South 193 222 9,200  Level Atlanta Center
Sun 07:06:21 AM 34.4767 -82.1294 135° Southeast 190 219 11,100 1,170 Climbing Jacksonville Center
Sun 07:07:21 AM 34.4472 -82.0742 123° Southeast 190 219 12,300 1,100 Climbing Jacksonville Center
Sun 07:08:21 AM 34.4175 -82.0217 124° Southeast 190 219 13,300 1,050 Climbing Jacksonville Center
Sun 07:09:21 AM 34.3881 -81.9642 122° Southeast 197 227 14,400 1,150 Climbing Jacksonville Center
Sun 07:10:21 AM 34.3564 -81.9092 125° Southeast 197 227 15,600 950 Climbing Jacksonville Center
Sun 07:11:21 AM 34.3225 -81.8542 127° Southeast 197 227 16,300 750 Climbing Jacksonville Center
Sun 07:12:21 AM 34.2886 -81.7967 125° Southeast 197 227 17,100 800 Climbing Jacksonville Center
Sun 07:13:21 AM 34.2567 -81.7394 124° Southeast 202 232 17,900 650 Climbing Jacksonville Center
Sun 07:14:21 AM 34.2228 -81.6847 127° Southeast 202 232 18,400 550 Climbing Jacksonville Center
Sun 07:15:21 AM 34.1911 -81.6247 123° Southeast 202 232 19,000 300 Climbing Jacksonville Center
Sun 07:16:21 AM 34.1528 -81.5625 127° Southeast 215 247 19,000  Level Jacksonville Center
Sun 07:17:21 AM 34.1125 -81.4906 124° Southeast 233 268 19,000  Level Jacksonville Center
Sun 07:18:21 AM 34.0697 -81.4158 125° Southeast 253 291 19,000  Level Jacksonville Center
Sun 07:19:21 AM 34.0294 -81.3464 125° Southeast 258 297 19,000  Level Jacksonville Center
Sun 07:20:21 AM 33.9867 -81.2747 126° Southeast 263 303 19,000  Level Jacksonville Center
Sun 07:21:21 AM 33.9461 -81.2028 124° Southeast 263 303 19,000  Level Jacksonville Center
Sun 07:22:21 AM 33.9033 -81.1286 125° Southeast 263 303 19,000  Level Jacksonville Center
Sun 07:23:21 AM 33.8606 -81.0544 125° Southeast 263 303 19,000  Level Jacksonville Center
Sun 07:24:21 AM 33.8508 -80.9544 97° East 257 296 19,000  Level Jacksonville Center
Sun 07:25:21 AM 33.8431 -80.8647 96° East 263 303 19,000  Level Jacksonville Center
Sun 07:26:21 AM 33.8375 -80.7747 94° East 268 308 19,000  Level Jacksonville Center
Sun 07:27:21 AM 33.8297 -80.6850 96° East 273 314 19,000  Level Jacksonville Center
Sun 07:28:21 AM 33.8239 -80.5953 94° East 273 314 19,000  Level Jacksonville Center
Sun 07:29:21 AM 33.8181 -80.5053 94° East 273 314 19,000  Level Jacksonville Center
Sun 07:30:21 AM 33.8103 -80.4356 98° East 273 314 19,000  Level Jacksonville Center
Sun 07:31:21 AM 33.8022 -80.3383 96° East 273 314 19,000  Level Jacksonville Center
Sun 07:32:21 AM 33.7961 -80.2461 95° East 273 314 19,000  Level Jacksonville Center
Sun 07:33:21 AM 33.7881 -80.1589 96° East 273 314 19,000  Level Jacksonville Center
Sun 07:34:21 AM 33.7819 -80.0689 95° East 273 314 19,000 -600 Level Jacksonville Center
Sun 07:35:21 AM 33.7733 -79.9744 96° East 273 314 17,800 -1,100 Descending Jacksonville Center
Sun 07:36:21 AM 33.7647 -79.8722 96° East 286 329 16,800 -1,250 Descending Jacksonville Center
Sun 07:37:21 AM 33.7561 -79.7725 96° East 293 337 15,300 -1,650 Descending Jacksonville Center
Sun 07:38:21 AM 33.7472 -79.6706 96° East 293 337 13,500 -1,850 Descending Jacksonville Center
Sun 07:39:21 AM 33.7469 -79.5731 90° East 293 337 11,600 -1,800 Descending Jacksonville Center
Sun 07:40:21 AM 33.7525 -79.4756 86° East 293 337 9,900 -1,700 Descending Jacksonville Center
Sun 07:41:21 AM 33.7603 -79.3803 84° East 275 316 8,200 -1,650 Descending Jacksonville Center
Sun 07:42:21 AM 33.7706 -79.2975 81° East 262 302 6,600 -1,650 Descending Jacksonville Center
Sun 07:43:21 AM 33.7744 -79.2147 87° East 249 287 4,900 -1,550 Descending Jacksonville Center
Sun 07:44:21 AM 33.7658 -79.1353 97° East 244 281 3,500 -1,400 Descending Jacksonville Center
Sun 07:46:00 AM 33.7220 -79.0298 90° East  Level Estimated
Sun 07:53:00 AM 33.6797 -78.9283 101° East  Level Estimated
Sun 07:54:00 AM 33.6797 -78.9283 101° East  Level Estimated

Login

Don't have an account? Register now (free) for customized features, flight alerts, and more!